Terminal Aerodrome Forecast
Issued by NWS Blacksburg, VA

Home | Current Version | Previous Version | Text Only | Print | Product List | Glossary On
Versions: 1 2 3 4 5 6 7 8 9 10 11 12 13 14
000
FTUS41 KRNK 211127
TAFLYH
TAF
KLYH 211127Z 2112/2212 21005KT P6SM SCT250 WS020/22035KT
     FM211400 21006KT P6SM FEW250
     FM211800 21011KT P6SM BKN035
     FM220000 20004KT P6SM BKN025
     FM220700 VRB03KT P6SM SCT080=

USA.gov is the U.S. government's official web portal to all federal, state and local government web resources and services.